createdAt,value
2019-05-09T00:00:10.089Z,99153.55
2019-05-09T00:02:43.601Z,99157.05
2019-05-09T00:05:14.146Z,99154.39
2019-05-09T00:07:45.131Z,99158.88
2019-05-09T00:10:16.356Z,99158.38
2019-05-09T00:12:47.391Z,99159.72
2019-05-09T00:15:18.360Z,99164.58
2019-05-09T00:17:49.321Z,99166.32
2019-05-09T00:20:33.747Z,99162.78
2019-05-09T00:23:04.716Z,99168.20
2019-05-09T00:25:35.678Z,99168.20
2019-05-09T00:28:07.244Z,99179.22
2019-05-09T00:30:57.859Z,99182.43
2019-05-09T00:33:30.525Z,99176.28
2019-05-09T00:36:03.879Z,99178.53
2019-05-09T00:38:38.748Z,99172.29
2019-05-09T00:41:09.811Z,99165.72
2019-05-09T00:43:43.605Z,99167.42
2019-05-09T00:46:16.267Z,99161.72
2019-05-09T00:48:48.870Z,99177.16
2019-05-09T00:51:19.849Z,99169.63
2019-05-09T00:53:50.826Z,99163.42
2019-05-09T00:56:23.994Z,99167.38
2019-05-09T00:58:54.465Z,99171.37
2019-05-09T01:01:25.523Z,99174.95
2019-05-09T01:03:56.492Z,99175.54
2019-05-09T01:06:27.461Z,99180.53
2019-05-09T01:08:58.435Z,99177.94
2019-05-09T01:11:29.401Z,99180.22
2019-05-09T01:14:00.378Z,99175.35
2019-05-09T01:16:33.305Z,99177.56
2019-05-09T01:19:04.018Z,99173.56
2019-05-09T01:21:34.981Z,99167.28
2019-05-09T01:24:06.153Z,99179.27
2019-05-09T01:26:37.145Z,99174.41
2019-05-09T01:29:08.111Z,99174.89
2019-05-09T01:31:39.069Z,99170.08
2019-05-09T01:34:13.341Z,99180.27
2019-05-09T01:36:49.017Z,99178.94
2019-05-09T01:39:20.007Z,99180.27
2019-05-09T01:41:53.070Z,99188.71
2019-05-09T01:44:24.041Z,99182.98
2019-05-09T01:46:55.479Z,99186.05
2019-05-09T01:49:26.460Z,99190.45
2019-05-09T01:51:57.416Z,99191.83
2019-05-09T01:54:30.090Z,99188.71
2019-05-09T01:57:03.373Z,99186.92
2019-05-09T01:59:34.307Z,99198.03
2019-05-09T02:02:08.496Z,99198.03
2019-05-09T02:04:38.439Z,99195.78
2019-05-09T02:07:09.506Z,99197.57
2019-05-09T02:09:40.483Z,99203.36
2019-05-09T02:12:11.429Z,99197.62
2019-05-09T02:14:45.204Z,99194.50
2019-05-09T02:17:26.447Z,99191.50
2019-05-09T02:19:57.446Z,99189.30
2019-05-09T02:22:34.674Z,99184.95
2019-05-09T02:25:10.207Z,99186.81
2019-05-09T02:27:43.502Z,99186.81
2019-05-09T02:30:15.670Z,99185.98
2019-05-09T02:32:46.725Z,99181.59
2019-05-09T02:35:18.534Z,99175.34
2019-05-09T02:37:50.013Z,99182.00
2019-05-09T02:40:21.144Z,99178.00
2019-05-09T02:42:52.095Z,99178.87
2019-05-09T02:45:24.715Z,99178.00
2019-05-09T02:47:55.695Z,99173.55
2019-05-09T02:50:28.556Z,99175.34
2019-05-09T02:52:59.308Z,99175.80
2019-05-09T02:55:30.739Z,99178.00
2019-05-09T02:58:02.414Z,99182.53
2019-05-09T03:00:35.003Z,99182.53
2019-05-09T03:03:11.300Z,99183.45
2019-05-09T03:05:42.262Z,99193.69
2019-05-09T03:08:13.234Z,99190.74
2019-05-09T03:10:44.254Z,99196.06
2019-05-09T03:13:15.203Z,99201.39
2019-05-09T03:15:49.464Z,99203.17
2019-05-09T03:18:20.311Z,99207.25
2019-05-09T03:21:02.125Z,99202.43
2019-05-09T03:23:33.092Z,99201.56
2019-05-09T03:26:04.935Z,99206.92
2019-05-09T03:28:40.053Z,99208.26
2019-05-09T03:31:12.837Z,99211.75
2019-05-09T03:33:43.834Z,99209.54
2019-05-09T03:36:14.778Z,99207.30
2019-05-09T03:38:47.575Z,99211.28
2019-05-09T03:41:18.686Z,99209.03
2019-05-09T03:43:49.654Z,99212.62
2019-05-09T03:46:24.973Z,99226.34
2019-05-09T03:49:03.512Z,99216.61
2019-05-09T03:51:34.495Z,99210.00
2019-05-09T03:54:07.861Z,99210.08
2019-05-09T03:56:42.641Z,99216.23
2019-05-09T03:59:13.605Z,99220.72
2019-05-09T04:01:46.993Z,99217.57
2019-05-09T04:04:19.419Z,99212.25
2019-05-09T04:06:49.924Z,99221.10
2019-05-09T04:09:20.920Z,99224.64
2019-05-09T04:11:51.917Z,99234.83
2019-05-09T04:14:30.325Z,99230.87
2019-05-09T04:17:03.189Z,99238.81
2019-05-09T04:19:34.148Z,99242.39
2019-05-09T04:22:05.149Z,99241.06
2019-05-09T04:24:38.216Z,99253.00
2019-05-09T04:27:10.950Z,99252.58
2019-05-09T04:29:41.941Z,99250.84
2019-05-09T04:32:12.900Z,99251.33
2019-05-09T04:34:43.859Z,99255.70
2019-05-09T04:37:14.826Z,99256.70
2019-05-09T04:39:47.645Z,99258.48
2019-05-09T04:42:18.628Z,99262.06
2019-05-09T04:44:57.580Z,99262.52
2019-05-09T04:47:27.796Z,99268.30
2019-05-09T04:49:58.884Z,99269.17
2019-05-09T04:52:29.847Z,99270.91
2019-05-09T04:55:00.863Z,99270.00
2019-05-09T04:57:33.453Z,99267.75
2019-05-09T05:00:09.947Z,99271.63
2019-05-09T05:02:44.566Z,99273.78
2019-05-09T05:05:15.553Z,99269.72
2019-05-09T05:07:48.045Z,99272.33
2019-05-09T05:10:19.172Z,99271.80
2019-05-09T05:12:50.161Z,99270.00
2019-05-09T05:15:21.163Z,99273.50
2019-05-09T05:17:52.145Z,99280.48
2019-05-09T05:20:24.783Z,99280.44
2019-05-09T05:22:58.121Z,99274.12
2019-05-09T05:25:29.263Z,99279.81
2019-05-09T05:28:00.268Z,99281.89
2019-05-09T05:30:31.254Z,99278.31
2019-05-09T05:33:03.872Z,99271.56
2019-05-09T05:35:37.554Z,99272.77
2019-05-09T05:38:08.763Z,99275.84
2019-05-09T05:40:44.928Z,99278.46
2019-05-09T05:43:12.408Z,99276.59
2019-05-09T05:45:45.011Z,99276.55
2019-05-09T05:48:17.662Z,99279.08
2019-05-09T05:50:48.840Z,99277.25
2019-05-09T05:53:19.871Z,99278.86
2019-05-09T05:55:52.818Z,99286.22
2019-05-09T05:58:23.526Z,99286.92
2019-05-09T06:00:54.589Z,99284.95
2019-05-09T06:03:25.554Z,99294.89
2019-05-09T06:05:58.413Z,99294.20
2019-05-09T06:08:29.212Z,99302.41
2019-05-09T06:11:00.204Z,99295.97
2019-05-09T06:13:32.314Z,99305.48
2019-05-09T06:16:03.282Z,99297.81
2019-05-09T06:18:34.283Z,99307.83
2019-05-09T06:21:05.264Z,99305.50
2019-05-09T06:23:37.397Z,99297.50
2019-05-09T06:26:09.924Z,99299.66
2019-05-09T06:28:41.151Z,99301.91
2019-05-09T06:31:12.111Z,99305.39
2019-05-09T06:33:46.469Z,99300.53
2019-05-09T06:36:15.809Z,99304.94
2019-05-09T06:38:48.789Z,99305.86
2019-05-09T06:41:19.446Z,99312.39
2019-05-09T06:43:52.596Z,99318.59
2019-05-09T06:46:27.556Z,99323.88
2019-05-09T06:49:19.993Z,99325.59
2019-05-09T06:51:30.900Z,99314.45
2019-05-09T06:54:01.864Z,99320.16
2019-05-09T06:56:32.828Z,99328.84
2019-05-09T06:59:03.822Z,99323.84
2019-05-09T07:01:37.632Z,99331.19
2019-05-09T07:04:13.420Z,99324.84
2019-05-09T07:06:48.123Z,99327.52
2019-05-09T07:09:23.380Z,99330.13
2019-05-09T07:11:54.350Z,99330.54
2019-05-09T07:14:32.639Z,99339.47
2019-05-09T07:17:01.748Z,99341.31
2019-05-09T07:19:32.745Z,99339.70
2019-05-09T07:22:05.379Z,99340.16
2019-05-09T07:24:58.069Z,99345.12
2019-05-09T07:27:28.712Z,99339.09
2019-05-09T07:30:02.032Z,99348.70
2019-05-09T07:32:50.911Z,99349.71
2019-05-09T07:35:21.916Z,99342.25
2019-05-09T07:37:52.871Z,99342.02
2019-05-09T07:40:26.905Z,99342.44
2019-05-09T07:42:58.383Z,99346.81
2019-05-09T07:45:29.188Z,99348.56
2019-05-09T07:48:00.168Z,99352.92
2019-05-09T07:50:31.125Z,99350.58
2019-05-09T07:53:02.118Z,99349.12
2019-05-09T07:55:33.098Z,99344.94
2019-05-09T07:58:04.082Z,99351.01
2019-05-09T08:00:38.362Z,99350.45
2019-05-09T08:03:12.584Z,99357.03
2019-05-09T08:05:41.041Z,99354.64
2019-05-09T08:08:18.341Z,99355.05
2019-05-09T08:10:48.781Z,99353.21
2019-05-09T08:13:21.504Z,99351.05
2019-05-09T08:15:52.439Z,99348.28
2019-05-09T08:18:23.442Z,99358.07
2019-05-09T08:20:54.386Z,99351.90
2019-05-09T08:23:27.479Z,99354.41
2019-05-09T08:25:58.092Z,99363.95
2019-05-09T08:28:29.031Z,99361.63
2019-05-09T08:31:00.035Z,99369.52
2019-05-09T08:33:32.900Z,99366.04
2019-05-09T08:36:03.887Z,99368.31
2019-05-09T08:38:34.883Z,99368.44
2019-05-09T08:41:13.690Z,99373.89
2019-05-09T08:43:45.343Z,99372.81
2019-05-09T08:46:18.153Z,99373.28
2019-05-09T08:48:49.064Z,99369.13
2019-05-09T08:51:21.682Z,99371.02
2019-05-09T08:53:52.672Z,99364.44
2019-05-09T08:56:23.673Z,99358.73
2019-05-09T08:58:57.961Z,99355.38
2019-05-09T09:01:45.878Z,99353.31
2019-05-09T09:04:00.025Z,99357.36
2019-05-09T09:06:30.981Z,99353.78
2019-05-09T09:09:01.983Z,99356.55
2019-05-09T09:11:32.938Z,99358.64
2019-05-09T09:14:03.917Z,99359.09
2019-05-09T09:16:34.929Z,99357.78
2019-05-09T09:19:05.864Z,99358.61
2019-05-09T09:21:38.940Z,99347.68
2019-05-09T09:24:10.008Z,99352.97
2019-05-09T09:26:41.008Z,99355.14
2019-05-09T09:29:11.994Z,99349.42
2019-05-09T09:31:42.955Z,99353.21
2019-05-09T09:34:13.944Z,99355.42
2019-05-09T09:36:44.938Z,99361.14
2019-05-09T09:39:18.393Z,99357.59
2019-05-09T09:41:48.585Z,99358.09
2019-05-09T09:44:22.434Z,99352.87
2019-05-09T09:46:52.255Z,99357.36
2019-05-09T09:49:23.213Z,99352.97
2019-05-09T09:51:54.211Z,99355.55
2019-05-09T09:54:27.455Z,99359.56
2019-05-09T09:56:58.960Z,99355.55
2019-05-09T09:59:32.430Z,99353.27
2019-05-09T10:02:09.990Z,99354.45
2019-05-09T10:04:37.865Z,99355.14
2019-05-09T10:07:09.097Z,99347.68
2019-05-09T10:09:40.068Z,99352.23
2019-05-09T10:12:11.452Z,99351.45
2019-05-09T10:14:46.857Z,99355.13
2019-05-09T10:17:35.723Z,99351.86
2019-05-09T10:20:13.288Z,99350.84
2019-05-09T10:22:47.748Z,99347.53
2019-05-09T10:25:18.279Z,99346.84
2019-05-09T10:27:49.780Z,99347.24
2019-05-09T10:30:30.680Z,99352.06
2019-05-09T10:33:01.678Z,99352.94
2019-05-09T10:35:32.673Z,99349.28
2019-05-09T10:38:03.646Z,99342.05
2019-05-09T10:40:34.632Z,99341.14
2019-05-09T10:43:09.949Z,99336.23
2019-05-09T10:45:58.633Z,99331.33
2019-05-09T10:48:30.072Z,99335.91
2019-05-09T10:51:05.583Z,99336.03
2019-05-09T10:53:34.417Z,99346.76
2019-05-09T10:56:08.411Z,99335.91
2019-05-09T10:58:38.063Z,99334.28
2019-05-09T11:01:09.296Z,99338.38
2019-05-09T11:03:40.310Z,99330.73
2019-05-09T11:06:11.254Z,99337.26
2019-05-09T11:08:42.246Z,99332.51
2019-05-09T11:11:13.217Z,99331.46
2019-05-09T11:13:44.202Z,99338.85
2019-05-09T11:16:15.161Z,99337.87
2019-05-09T11:18:48.267Z,99333.59
2019-05-09T11:21:19.548Z,99331.33
2019-05-09T11:23:51.130Z,99336.66
2019-05-09T11:26:22.112Z,99340.81
2019-05-09T11:28:53.092Z,99341.78
2019-05-09T11:31:24.153Z,99343.52
2019-05-09T11:33:57.701Z,99335.66
2019-05-09T11:36:27.876Z,99333.63
2019-05-09T11:39:00.643Z,99339.05
2019-05-09T11:41:31.542Z,99341.52
2019-05-09T11:44:02.533Z,99341.45
2019-05-09T11:46:33.490Z,99338.55
2019-05-09T11:49:04.483Z,99335.23
2019-05-09T11:51:35.472Z,99333.67
2019-05-09T11:54:08.863Z,99333.85
2019-05-09T11:56:39.146Z,99342.05
2019-05-09T11:59:10.179Z,99339.14
2019-05-09T12:01:41.193Z,99344.69
2019-05-09T12:04:12.156Z,99343.67
2019-05-09T12:06:43.124Z,99351.09
2019-05-09T12:09:14.997Z,99342.83
2019-05-09T12:11:48.378Z,99346.48
2019-05-09T12:14:18.725Z,99334.97
2019-05-09T12:16:49.707Z,99332.93
2019-05-09T12:19:20.698Z,99344.67
2019-05-09T12:21:51.657Z,99338.37
2019-05-09T12:24:22.656Z,99342.24
2019-05-09T12:26:53.645Z,99337.87
2019-05-09T12:29:24.649Z,99342.33
2019-05-09T12:31:57.498Z,99345.63
2019-05-09T12:34:28.457Z,99339.72
2019-05-09T12:36:59.438Z,99346.07
2019-05-09T12:39:30.970Z,99339.03
2019-05-09T12:42:01.977Z,99345.34
2019-05-09T12:44:32.955Z,99342.25
2019-05-09T12:47:03.916Z,99344.98
2019-05-09T12:49:34.937Z,99344.47
2019-05-09T12:52:08.214Z,99339.70
2019-05-09T12:54:38.840Z,99339.97
2019-05-09T12:57:09.799Z,99333.88
2019-05-09T12:59:48.569Z,99339.38
2019-05-09T13:02:13.442Z,99344.27
2019-05-09T13:04:44.453Z,99342.82
2019-05-09T13:07:15.457Z,99333.89
2019-05-09T13:09:52.199Z,99341.74
2019-05-09T13:12:19.184Z,99342.25
2019-05-09T13:14:50.152Z,99340.41
2019-05-09T13:17:27.215Z,99347.70
2019-05-09T13:19:58.646Z,99343.48
2019-05-09T13:22:29.857Z,99342.73
2019-05-09T13:25:02.842Z,99342.73
2019-05-09T13:27:33.528Z,99344.27
2019-05-09T13:30:08.151Z,99348.17
2019-05-09T13:32:38.545Z,99341.92
2019-05-09T13:35:09.847Z,99343.60
2019-05-09T13:37:43.162Z,99349.62
2019-05-09T13:40:14.210Z,99344.05
2019-05-09T13:42:45.183Z,99350.45
2019-05-09T13:45:18.454Z,99349.91
2019-05-09T13:47:49.727Z,99342.28
2019-05-09T13:50:20.891Z,99338.91
2019-05-09T13:52:51.871Z,99337.62
2019-05-09T13:55:22.836Z,99336.91
2019-05-09T13:57:53.832Z,99337.23
2019-05-09T14:00:24.887Z,99336.48
2019-05-09T14:02:55.854Z,99327.63
2019-05-09T14:05:29.105Z,99331.66
2019-05-09T14:08:03.487Z,99331.30
2019-05-09T14:10:32.193Z,99335.41
2019-05-09T14:13:09.789Z,99331.38
2019-05-09T14:15:36.743Z,99334.49
2019-05-09T14:18:08.372Z,99335.27
2019-05-09T14:20:39.374Z,99330.32
2019-05-09T14:23:11.792Z,99326.97
2019-05-09T14:25:48.189Z,99340.60
2019-05-09T14:28:15.460Z,99345.68
2019-05-09T14:30:47.764Z,99343.48
2019-05-09T14:33:18.770Z,99350.19
2019-05-09T14:35:49.764Z,99341.25
2019-05-09T14:38:20.740Z,99345.11
2019-05-09T14:40:51.711Z,99339.84
2019-05-09T14:43:22.669Z,99339.34
2019-05-09T14:45:53.652Z,99334.64
2019-05-09T14:48:24.617Z,99344.87
2019-05-09T14:50:58.187Z,99337.95
2019-05-09T14:53:28.417Z,99330.23
2019-05-09T14:55:59.429Z,99339.06
2019-05-09T14:58:31.074Z,99345.31
2019-05-09T15:01:02.077Z,99343.09
2019-05-09T15:03:33.062Z,99337.14
2019-05-09T15:06:07.392Z,99345.58
2019-05-09T15:08:38.207Z,99343.48
2019-05-09T15:11:09.999Z,99345.41
2019-05-09T15:13:41.124Z,99348.78
2019-05-09T15:16:12.135Z,99348.78
2019-05-09T15:18:43.137Z,99349.73
2019-05-09T15:21:14.081Z,99349.86
2019-05-09T15:23:45.064Z,99350.45
2019-05-09T15:26:17.642Z,99354.51
2019-05-09T15:28:48.794Z,99350.97
2019-05-09T15:31:19.759Z,99348.27
2019-05-09T15:33:51.013Z,99348.95
2019-05-09T15:36:22.060Z,99354.92
2019-05-09T15:38:53.053Z,99355.09
2019-05-09T15:41:24.014Z,99359.89
2019-05-09T15:43:57.743Z,99365.47
2019-05-09T15:46:29.324Z,99364.72
2019-05-09T15:49:00.291Z,99359.34
2019-05-09T15:51:32.227Z,99364.22
2019-05-09T15:54:03.319Z,99362.12
2019-05-09T15:56:34.303Z,99369.09
2019-05-09T15:59:05.280Z,99366.69
2019-05-09T16:01:38.498Z,99370.05
2019-05-09T16:04:09.096Z,99370.34
2019-05-09T16:06:42.118Z,99368.33
2019-05-09T16:09:13.085Z,99369.08
2019-05-09T16:11:44.068Z,99372.52
2019-05-09T16:14:15.064Z,99378.57
2019-05-09T16:16:47.852Z,99380.55
2019-05-09T16:19:18.691Z,99382.29
2019-05-09T16:21:49.671Z,99379.77
2019-05-09T16:24:20.658Z,99382.64
2019-05-09T16:26:51.623Z,99389.95
2019-05-09T16:29:22.751Z,99384.66
2019-05-09T16:31:53.738Z,99383.98
2019-05-09T16:34:24.752Z,99384.06
2019-05-09T16:36:58.231Z,99388.64
2019-05-09T16:39:28.386Z,99391.45
2019-05-09T16:41:59.523Z,99392.47
2019-05-09T16:44:31.685Z,99393.93
2019-05-09T16:47:02.638Z,99391.04
2019-05-09T16:49:33.591Z,99390.44
2019-05-09T16:52:04.754Z,99391.94
2019-05-09T16:54:38.776Z,99389.45
2019-05-09T16:57:09.933Z,99399.47
2019-05-09T16:59:40.936Z,99393.78
2019-05-09T17:02:21.807Z,99398.87
2019-05-09T17:04:44.590Z,99397.25
2019-05-09T17:07:17.931Z,99404.11
2019-05-09T17:09:48.544Z,99402.48
2019-05-09T17:12:19.604Z,99405.04
2019-05-09T17:14:50.956Z,99404.28
2019-05-09T17:17:21.938Z,99405.77
2019-05-09T17:19:53.211Z,99401.86
2019-05-09T17:22:41.644Z,99399.80
2019-05-09T17:25:12.608Z,99406.62
2019-05-09T17:27:43.675Z,99409.17
2019-05-09T17:30:15.089Z,99412.11
2019-05-09T17:32:47.465Z,99425.61
2019-05-09T17:35:18.670Z,99426.19
2019-05-09T17:37:49.572Z,99419.16
2019-05-09T17:40:20.569Z,99419.16
2019-05-09T17:42:51.524Z,99420.67
2019-05-09T17:45:22.508Z,99416.17
2019-05-09T17:47:53.470Z,99426.12
2019-05-09T17:50:24.462Z,99417.30
2019-05-09T17:52:57.448Z,99424.95
2019-05-09T17:55:28.164Z,99429.16
2019-05-09T17:57:59.123Z,99423.94
2019-05-09T18:00:30.269Z,99420.50
2019-05-09T18:03:01.231Z,99429.89
2019-05-09T18:05:35.643Z,99428.33
2019-05-09T18:08:07.864Z,99431.48
2019-05-09T18:10:38.275Z,99432.61
2019-05-09T18:13:09.385Z,99438.44
2019-05-09T18:15:40.471Z,99443.02
2019-05-09T18:18:12.523Z,99443.12
2019-05-09T18:20:43.479Z,99447.21
2019-05-09T18:23:14.452Z,99450.84
2019-05-09T18:25:45.432Z,99457.55
2019-05-09T18:28:17.437Z,99455.91
2019-05-09T18:30:48.470Z,99454.61
2019-05-09T18:33:23.796Z,99457.36
2019-05-09T18:35:54.764Z,99465.52
2019-05-09T18:38:29.858Z,99465.19
2019-05-09T18:41:00.821Z,99470.25
2019-05-09T18:43:31.820Z,99471.66
2019-05-09T18:46:02.803Z,99472.70
2019-05-09T18:48:33.792Z,99468.86
2019-05-09T18:51:04.928Z,99471.14
2019-05-09T18:53:35.910Z,99479.73
2019-05-09T18:56:06.934Z,99477.69
2019-05-09T18:58:38.069Z,99479.09
2019-05-09T19:01:09.017Z,99485.97
2019-05-09T19:03:40.010Z,99490.53
2019-05-09T19:06:11.570Z,99488.89
2019-05-09T19:08:42.871Z,99493.09
2019-05-09T19:11:14.490Z,99497.64
2019-05-09T19:13:45.505Z,99494.27
2019-05-09T19:16:34.521Z,99497.88
2019-05-09T19:19:19.587Z,99500.27
2019-05-09T19:21:52.698Z,99500.50
2019-05-09T19:24:23.680Z,99508.30
2019-05-09T19:26:54.706Z,99509.24
2019-05-09T19:29:25.640Z,99511.12
2019-05-09T19:31:56.639Z,99516.95
2019-05-09T19:34:27.613Z,99521.07
2019-05-09T19:36:59.676Z,99522.01
2019-05-09T19:39:30.994Z,99525.62
2019-05-09T19:42:01.999Z,99534.60
2019-05-09T19:44:32.992Z,99532.56
2019-05-09T19:47:03.951Z,99534.00
2019-05-09T19:49:34.930Z,99531.45
2019-05-09T19:52:06.277Z,99532.88
2019-05-09T19:54:37.265Z,99536.56
2019-05-09T19:57:08.235Z,99542.49
2019-05-09T19:59:39.225Z,99545.30
2019-05-09T20:02:10.270Z,99547.67
2019-05-09T20:04:41.261Z,99549.95
2019-05-09T20:07:12.224Z,99549.23
2019-05-09T20:09:47.568Z,99555.09
2019-05-09T20:12:25.676Z,99561.80
2019-05-09T20:14:56.682Z,99553.05
2019-05-09T20:17:27.654Z,99561.17
2019-05-09T20:19:58.648Z,99559.03
2019-05-09T20:22:29.622Z,99558.22
2019-05-09T20:25:00.655Z,99565.42
2019-05-09T20:27:31.352Z,99561.40
2019-05-09T20:30:02.370Z,99569.50
2019-05-09T20:32:33.345Z,99571.00
2019-05-09T20:35:06.175Z,99579.03
2019-05-09T20:37:37.340Z,99583.98
2019-05-09T20:40:08.553Z,99591.20
2019-05-09T20:42:39.733Z,99583.73
2019-05-09T20:45:11.519Z,99593.98
2019-05-09T20:47:42.713Z,99599.00
2019-05-09T20:50:14.052Z,99602.14
2019-05-09T20:52:45.247Z,99596.94
2019-05-09T20:55:16.470Z,99605.91
2019-05-09T20:57:47.622Z,99607.71
2019-05-09T21:00:19.092Z,99606.00
2019-05-09T21:02:50.251Z,99600.30
2019-05-09T21:05:21.405Z,99606.13
2019-05-09T21:07:52.596Z,99611.07
2019-05-09T21:10:23.792Z,99612.97
2019-05-09T21:12:54.959Z,99611.69
2019-05-09T21:15:26.133Z,99617.14
2019-05-09T21:17:57.878Z,99614.11
2019-05-09T21:20:29.035Z,99619.94
2019-05-09T21:23:00.228Z,99621.84
2019-05-09T21:25:33.378Z,99628.13
2019-05-09T21:28:04.916Z,99633.53
2019-05-09T21:30:36.072Z,99627.77
2019-05-09T21:33:07.250Z,99627.87
2019-05-09T21:35:38.213Z,99627.45
2019-05-09T21:38:09.200Z,99633.74
2019-05-09T21:40:40.169Z,99633.84
2019-05-09T21:43:11.354Z,99636.11
2019-05-09T21:45:42.330Z,99641.52
2019-05-09T21:48:13.339Z,99642.95
2019-05-09T21:50:44.341Z,99643.94
2019-05-09T21:53:15.321Z,99643.53
2019-05-09T21:55:46.322Z,99645.42
2019-05-09T21:58:17.353Z,99649.50
2019-05-09T22:00:52.170Z,99646.97
2019-05-09T22:03:23.369Z,99642.61
2019-05-09T22:05:54.373Z,99643.16
2019-05-09T22:08:25.849Z,99650.37
2019-05-09T22:10:56.804Z,99649.18
2019-05-09T22:13:28.194Z,99660.41
2019-05-09T22:15:59.171Z,99659.22
2019-05-09T22:18:30.160Z,99661.11
2019-05-09T22:21:01.129Z,99666.52
2019-05-09T22:23:32.119Z,99663.89
2019-05-09T22:26:03.109Z,99672.99
2019-05-09T22:28:34.078Z,99663.27
2019-05-09T22:31:05.036Z,99671.77
2019-05-09T22:33:36.039Z,99673.21
2019-05-09T22:36:07.002Z,99669.75
2019-05-09T22:38:38.009Z,99669.34
2019-05-09T22:41:08.965Z,99674.38
2019-05-09T22:43:39.957Z,99670.88
2019-05-09T22:46:12.414Z,99668.26
2019-05-09T22:48:43.393Z,99676.97
2019-05-09T22:51:14.365Z,99673.89
2019-05-09T22:53:45.380Z,99676.20
2019-05-09T22:56:16.340Z,99683.86
2019-05-09T22:58:47.308Z,99685.77
2019-05-09T23:01:18.319Z,99680.09
2019-05-09T23:03:49.287Z,99677.47
2019-05-09T23:06:20.325Z,99679.36
2019-05-09T23:08:51.344Z,99682.55
2019-05-09T23:11:22.335Z,99683.09
2019-05-09T23:13:53.307Z,99683.20
2019-05-09T23:16:28.928Z,99675.67
2019-05-09T23:18:59.897Z,99673.57
2019-05-09T23:21:31.152Z,99680.34
2019-05-09T23:24:06.605Z,99677.39
2019-05-09T23:26:37.609Z,99673.44
2019-05-09T23:29:08.571Z,99670.90
2019-05-09T23:31:43.889Z,99679.02
2019-05-09T23:34:14.881Z,99669.75
2019-05-09T23:36:45.882Z,99677.88
2019-05-09T23:39:18.496Z,99674.41
2019-05-09T23:41:49.510Z,99676.72
2019-05-09T23:44:20.550Z,99678.19
2019-05-09T23:46:51.584Z,99679.12
2019-05-09T23:49:24.739Z,99678.78
2019-05-09T23:51:56.782Z,99680.64
2019-05-09T23:54:47.187Z,99681.23
2019-05-09T23:57:35.522Z,99678.14
